createdAt,value
2023-02-22T00:03:00.508Z,83.66
2023-02-22T00:06:05.301Z,83.62
2023-02-22T00:09:09.507Z,83.83
2023-02-22T00:12:12.131Z,84.48
2023-02-22T00:15:16.025Z,84.58
2023-02-22T00:18:19.481Z,85.13
2023-02-22T00:21:22.761Z,86.09
2023-02-22T00:24:25.463Z,85.81
2023-02-22T00:27:28.038Z,86.61
2023-02-22T00:30:32.184Z,86.56
2023-02-22T00:33:36.806Z,87.84
2023-02-22T00:36:39.426Z,87.37
2023-02-22T00:39:42.000Z,87.59
2023-02-22T00:42:45.983Z,88.44
2023-02-22T00:45:49.497Z,88.92
2023-02-22T00:48:53.588Z,89.09
2023-02-22T00:51:56.195Z,89.54
2023-02-22T00:55:00.695Z,90.53
2023-02-22T00:58:04.009Z,92.08
2023-02-22T01:01:06.659Z,92.34
2023-02-22T01:04:09.728Z,92.51
2023-02-22T01:07:14.523Z,92.85
2023-02-22T01:10:21.939Z,93.49
2023-02-22T01:13:24.777Z,91.71
2023-02-22T01:16:28.202Z,93.05
2023-02-22T01:19:32.465Z,94.21
2023-02-22T01:22:34.982Z,93.70
2023-02-22T01:25:37.594Z,94.16
2023-02-22T01:28:40.159Z,94.47
2023-02-22T01:31:44.357Z,94.32
2023-02-22T01:34:47.692Z,93.69
2023-02-22T01:37:50.277Z,93.81
2023-02-22T01:40:53.912Z,94.47
2023-02-22T01:43:58.916Z,94.42
2023-02-22T01:47:04.308Z,94.22
2023-02-22T01:50:07.264Z,94.12
2023-02-22T01:53:11.487Z,94.76
2023-02-22T01:56:15.162Z,94.79
2023-02-22T01:59:18.456Z,95.81
2023-02-22T02:02:27.393Z,96.41
2023-02-22T02:05:34.757Z,96.53
2023-02-22T02:08:42.657Z,95.94
2023-02-22T02:11:46.037Z,94.96
2023-02-22T02:14:48.921Z,95.31
2023-02-22T02:17:53.644Z,94.66
2023-02-22T02:20:59.400Z,94.47
2023-02-22T02:24:11.108Z,94.01
2023-02-22T02:27:36.759Z,94.54
2023-02-22T02:31:19.574Z,94.84
2023-02-22T02:34:28.746Z,94.51
2023-02-22T02:37:34.115Z,94.50
2023-02-22T02:40:47.810Z,94.76
2023-02-22T02:44:09.158Z,94.54
2023-02-22T02:47:24.486Z,93.96
2023-02-22T02:50:31.813Z,93.89
2023-02-22T02:53:38.830Z,94.01
2023-02-22T02:56:44.445Z,92.62
2023-02-22T02:59:48.580Z,93.51
2023-02-22T03:03:17.242Z,92.50
2023-02-22T03:06:30.204Z,91.66
2023-02-22T03:09:46.536Z,91.78
2023-02-22T03:12:55.289Z,92.25
2023-02-22T03:16:03.064Z,92.12
2023-02-22T03:19:13.788Z,92.78
2023-02-22T03:22:25.158Z,92.46
2023-02-22T03:25:50.586Z,92.37
2023-02-22T03:28:56.123Z,91.33
2023-02-22T03:32:01.804Z,91.36
2023-02-22T03:35:17.331Z,92.28
2023-02-22T03:38:20.490Z,92.41
2023-02-22T03:41:28.322Z,92.41
2023-02-22T03:44:33.018Z,94.41
2023-02-22T03:47:43.297Z,95.26
2023-02-22T03:50:46.090Z,96.05
2023-02-22T03:53:48.706Z,96.47
2023-02-22T03:56:59.266Z,96.48
2023-02-22T04:00:06.788Z,96.68
2023-02-22T04:03:15.438Z,96.88
2023-02-22T04:06:18.198Z,97.05
2023-02-22T04:09:22.377Z,96.88
2023-02-22T04:12:24.981Z,96.85
2023-02-22T04:15:38.222Z,96.47
2023-02-22T04:18:43.891Z,96.21
2023-02-22T04:21:48.306Z,96.70
2023-02-22T04:24:57.182Z,96.60
2023-02-22T04:27:59.716Z,96.70
2023-02-22T04:31:15.197Z,97.32
2023-02-22T04:34:18.288Z,96.95
2023-02-22T04:37:21.169Z,96.64
2023-02-22T04:40:24.440Z,96.55
2023-02-22T04:43:27.018Z,97.11
2023-02-22T04:46:36.863Z,97.10
2023-02-22T04:49:39.584Z,97.25
2023-02-22T04:52:42.796Z,96.62
2023-02-22T04:55:47.257Z,97.24
2023-02-22T04:58:49.891Z,97.59
2023-02-22T05:01:52.756Z,96.74
2023-02-22T05:04:55.747Z,96.34
2023-02-22T05:07:58.251Z,96.39
2023-02-22T05:11:01.167Z,97.15
2023-02-22T05:14:03.781Z,97.24
2023-02-22T05:17:06.413Z,96.92
2023-02-22T05:20:36.763Z,96.70
2023-02-22T05:23:39.797Z,97.11
2023-02-22T05:26:46.000Z,97.45
2023-02-22T05:29:48.555Z,97.80
2023-02-22T05:32:51.877Z,97.13
2023-02-22T05:35:56.639Z,96.79
2023-02-22T05:39:01.022Z,96.68
2023-02-22T05:42:04.480Z,96.44
2023-02-22T05:45:08.510Z,96.15
2023-02-22T05:48:13.337Z,95.95
2023-02-22T05:51:16.374Z,96.21
2023-02-22T05:54:19.321Z,96.13
2023-02-22T05:57:22.195Z,96.71
2023-02-22T06:00:30.435Z,97.00
2023-02-22T06:03:33.207Z,97.10
2023-02-22T06:06:35.792Z,96.19
2023-02-22T06:09:38.508Z,95.14
2023-02-22T06:12:41.887Z,94.50
2023-02-22T06:15:44.508Z,93.03
2023-02-22T06:18:48.097Z,92.20
2023-02-22T06:21:56.380Z,91.69
2023-02-22T06:24:59.486Z,90.84
2023-02-22T06:28:02.654Z,90.00
2023-02-22T06:31:05.504Z,89.88
2023-02-22T06:34:08.412Z,88.76
2023-02-22T06:37:11.018Z,88.18
2023-02-22T06:40:14.186Z,87.37
2023-02-22T06:43:17.009Z,87.08
2023-02-22T06:46:21.333Z,87.09
2023-02-22T06:49:23.986Z,86.65
2023-02-22T06:52:26.930Z,88.03
2023-02-22T06:55:32.078Z,88.51
2023-02-22T06:58:34.694Z,90.92
2023-02-22T07:01:37.492Z,93.51
2023-02-22T07:04:43.316Z,94.69
2023-02-22T07:07:47.786Z,95.48
2023-02-22T07:10:50.791Z,95.77
2023-02-22T07:13:53.618Z,95.36
2023-02-22T07:16:56.182Z,94.64
2023-02-22T07:19:58.767Z,93.84
2023-02-22T07:23:01.632Z,92.83
2023-02-22T07:26:05.804Z,92.46
2023-02-22T07:29:09.012Z,89.99
2023-02-22T07:32:12.383Z,89.39
2023-02-22T07:35:22.625Z,88.24
2023-02-22T07:38:25.282Z,88.76
2023-02-22T07:41:27.872Z,88.40
2023-02-22T07:44:30.639Z,88.29
2023-02-22T07:47:33.184Z,87.42
2023-02-22T07:50:36.478Z,87.27
2023-02-22T07:53:39.183Z,86.46
2023-02-22T07:56:46.683Z,85.97
2023-02-22T07:59:49.354Z,86.53
2023-02-22T08:02:52.428Z,85.55
2023-02-22T08:05:57.526Z,85.30
2023-02-22T08:09:00.118Z,86.05
2023-02-22T08:12:02.831Z,85.36
2023-02-22T08:15:07.313Z,82.26
2023-02-22T08:18:15.428Z,81.17
2023-02-22T08:21:18.543Z,79.23
2023-02-22T08:24:21.431Z,81.87
2023-02-22T08:27:29.034Z,81.14
2023-02-22T08:30:35.084Z,79.61
2023-02-22T08:33:37.939Z,80.34
2023-02-22T08:36:42.767Z,80.24
2023-02-22T08:39:46.026Z,79.08
2023-02-22T08:42:48.636Z,79.75
2023-02-22T08:45:52.297Z,78.21
2023-02-22T08:48:55.060Z,77.69
2023-02-22T08:51:57.889Z,75.84
2023-02-22T08:55:01.091Z,76.53
2023-02-22T08:58:05.379Z,75.55
2023-02-22T09:01:08.434Z,76.69
2023-02-22T09:04:11.304Z,76.17
2023-02-22T09:07:14.732Z,76.12
2023-02-22T09:10:20.983Z,75.98
2023-02-22T09:13:23.804Z,75.59
2023-02-22T09:16:26.512Z,75.08
2023-02-22T09:19:29.289Z,73.62
2023-02-22T09:22:31.918Z,72.61
2023-02-22T09:25:34.671Z,72.34
2023-02-22T09:28:37.223Z,72.43
2023-02-22T09:31:41.024Z,71.95
2023-02-22T09:34:46.066Z,70.97
2023-02-22T09:37:48.646Z,70.80
2023-02-22T09:40:54.509Z,70.23
2023-02-22T09:44:21.414Z,72.78
2023-02-22T09:47:33.961Z,75.53
2023-02-22T09:50:42.641Z,76.88
2023-02-22T09:53:48.722Z,77.39
2023-02-22T09:56:55.761Z,78.30
2023-02-22T10:00:13.383Z,77.84
2023-02-22T10:03:23.125Z,76.22
2023-02-22T10:06:26.053Z,75.69
2023-02-22T10:09:30.741Z,74.92
2023-02-22T10:13:01.774Z,74.48
2023-02-22T10:16:21.527Z,74.66
2023-02-22T10:19:32.750Z,73.17
2023-02-22T10:23:22.954Z,71.39
2023-02-22T10:26:38.307Z,71.75
2023-02-22T10:29:51.260Z,73.07
2023-02-22T10:33:10.246Z,73.73
2023-02-22T10:36:24.513Z,73.24
2023-02-22T10:39:35.871Z,74.11
2023-02-22T10:42:38.894Z,73.08
2023-02-22T10:45:41.648Z,74.22
2023-02-22T10:48:47.382Z,74.10
2023-02-22T10:52:04.387Z,73.09
2023-02-22T10:55:15.589Z,73.21
2023-02-22T10:58:18.436Z,73.58
2023-02-22T11:01:36.815Z,74.99
2023-02-22T11:05:06.091Z,73.80
2023-02-22T11:08:22.597Z,73.19
2023-02-22T11:11:29.826Z,72.82
2023-02-22T11:14:32.477Z,72.50
2023-02-22T11:17:35.260Z,72.80
2023-02-22T11:20:39.839Z,73.20
2023-02-22T11:23:45.085Z,72.61
2023-02-22T11:26:49.845Z,72.17
2023-02-22T11:29:52.747Z,72.09
2023-02-22T11:33:01.419Z,71.34
2023-02-22T11:36:09.039Z,71.21
2023-02-22T11:39:24.668Z,69.79
2023-02-22T11:42:28.560Z,69.76
2023-02-22T11:45:31.241Z,69.44
2023-02-22T11:48:36.937Z,69.91
2023-02-22T11:51:58.116Z,68.03
2023-02-22T11:55:36.296Z,67.67
2023-02-22T11:58:50.728Z,67.24
2023-02-22T12:02:01.899Z,65.99
2023-02-22T12:05:29.159Z,66.00
2023-02-22T12:08:57.772Z,64.88
2023-02-22T12:12:22.002Z,65.48
2023-02-22T12:15:32.049Z,65.76
2023-02-22T12:18:47.018Z,66.78
2023-02-22T12:21:56.207Z,65.47
2023-02-22T12:25:09.671Z,64.94
2023-02-22T12:28:27.307Z,65.30
2023-02-22T12:32:05.436Z,64.88
2023-02-22T12:35:24.937Z,65.00
2023-02-22T12:38:44.581Z,63.68
2023-02-22T12:41:49.255Z,63.70
2023-02-22T12:44:55.965Z,63.00
2023-02-22T12:48:21.858Z,62.62
2023-02-22T12:51:39.871Z,63.58
2023-02-22T12:54:56.439Z,62.69
2023-02-22T12:58:14.302Z,64.52
2023-02-22T13:01:20.697Z,63.87
2023-02-22T13:04:23.507Z,64.04
2023-02-22T13:07:32.142Z,63.66
2023-02-22T13:10:46.932Z,64.03
2023-02-22T13:14:31.589Z,64.16
2023-02-22T13:17:43.444Z,64.12
2023-02-22T13:21:09.813Z,63.24
2023-02-22T13:24:46.406Z,65.43
2023-02-22T13:27:58.464Z,65.43
2023-02-22T13:31:20.316Z,65.63
2023-02-22T13:34:30.755Z,65.30
2023-02-22T13:37:35.670Z,66.97
2023-02-22T13:41:06.228Z,64.97
2023-02-22T13:44:38.314Z,65.42
2023-02-22T13:48:24.590Z,64.99
2023-02-22T13:51:39.700Z,65.59
2023-02-22T13:54:46.432Z,65.25
2023-02-22T13:57:51.860Z,65.18
2023-02-22T14:00:57.323Z,66.18
2023-02-22T14:04:20.179Z,65.84
2023-02-22T14:07:22.910Z,65.79
2023-02-22T14:10:44.569Z,65.59
2023-02-22T14:13:58.285Z,65.92
2023-02-22T14:17:18.123Z,66.20
2023-02-22T14:20:30.677Z,66.63
2023-02-22T14:23:44.944Z,65.39
2023-02-22T14:27:05.617Z,65.39
2023-02-22T14:30:32.180Z,67.04
2023-02-22T14:34:08.009Z,66.10
2023-02-22T14:37:26.481Z,66.41
2023-02-22T14:40:35.041Z,64.96
2023-02-22T14:43:38.372Z,65.92
2023-02-22T14:46:43.124Z,66.33
2023-02-22T14:49:48.396Z,66.95
2023-02-22T14:53:15.295Z,65.78
2023-02-22T14:56:25.927Z,66.26
2023-02-22T14:59:29.004Z,66.24
2023-02-22T15:02:39.118Z,66.73
2023-02-22T15:05:42.086Z,68.06
2023-02-22T15:08:49.963Z,68.13
2023-02-22T15:11:55.482Z,68.61
2023-02-22T15:15:22.228Z,68.33
2023-02-22T15:18:33.178Z,69.28
2023-02-22T15:21:35.912Z,69.52
2023-02-22T15:24:38.598Z,69.56
2023-02-22T15:27:46.128Z,69.51
2023-02-22T15:30:48.982Z,69.57
2023-02-22T15:33:53.441Z,70.30
2023-02-22T15:36:58.265Z,70.58
2023-02-22T15:40:15.941Z,69.56
2023-02-22T15:43:24.532Z,70.05
2023-02-22T15:46:27.442Z,70.37
2023-02-22T15:49:34.429Z,70.38
2023-02-22T15:52:37.352Z,69.34
2023-02-22T15:55:43.968Z,70.71
2023-02-22T15:58:47.967Z,72.03
2023-02-22T16:01:51.911Z,72.27
2023-02-22T16:05:10.006Z,71.95
2023-02-22T16:08:21.952Z,72.12
2023-02-22T16:11:32.175Z,71.27
2023-02-22T16:14:34.822Z,71.89
2023-02-22T16:17:52.632Z,71.80
2023-02-22T16:21:23.137Z,71.31
2023-02-22T16:24:31.502Z,71.67
2023-02-22T16:27:47.740Z,72.11
2023-02-22T16:30:57.538Z,73.55
2023-02-22T16:34:01.577Z,74.25
2023-02-22T16:37:04.367Z,73.78
2023-02-22T16:40:14.229Z,74.27
2023-02-22T16:43:22.918Z,73.42
2023-02-22T16:46:25.953Z,74.00
2023-02-22T16:49:29.359Z,73.81
2023-02-22T16:52:32.097Z,74.00
2023-02-22T16:55:37.070Z,74.19
2023-02-22T16:58:41.718Z,75.17
2023-02-22T17:01:44.581Z,75.41
2023-02-22T17:04:50.130Z,75.10
2023-02-22T17:07:53.026Z,76.11
2023-02-22T17:10:57.424Z,75.54
2023-02-22T17:14:00.555Z,75.34
2023-02-22T17:17:04.024Z,75.15
2023-02-22T17:20:11.868Z,75.06
2023-02-22T17:23:14.633Z,75.31
2023-02-22T17:26:18.078Z,75.67
2023-02-22T17:29:20.870Z,76.99
2023-02-22T17:32:23.693Z,77.74
2023-02-22T17:35:27.331Z,78.44
2023-02-22T17:38:30.909Z,78.21
2023-02-22T17:41:33.748Z,77.29
2023-02-22T17:44:36.815Z,76.90
2023-02-22T17:47:43.240Z,76.57
2023-02-22T17:50:48.469Z,76.80
2023-02-22T17:53:52.309Z,76.88
2023-02-22T17:56:58.211Z,76.52
2023-02-22T18:00:02.135Z,76.57
2023-02-22T18:03:06.776Z,77.43
2023-02-22T18:06:09.463Z,77.95
2023-02-22T18:09:12.366Z,77.44
2023-02-22T18:12:15.330Z,77.92
2023-02-22T18:15:18.281Z,78.24
2023-02-22T18:18:22.488Z,78.97
2023-02-22T18:21:27.111Z,78.47
2023-02-22T18:24:34.732Z,78.29
2023-02-22T18:27:38.217Z,78.87
2023-02-22T18:30:41.749Z,78.91
2023-02-22T18:33:46.038Z,79.03
2023-02-22T18:36:51.318Z,79.21
2023-02-22T18:39:56.102Z,79.90
2023-02-22T18:42:59.896Z,80.83
2023-02-22T18:46:16.861Z,79.62
2023-02-22T18:49:21.055Z,80.68
2023-02-22T18:52:24.712Z,80.40
2023-02-22T18:55:27.657Z,80.45
2023-02-22T18:58:33.066Z,80.25
2023-02-22T19:01:39.024Z,80.46
2023-02-22T19:04:44.921Z,80.37
2023-02-22T19:07:48.996Z,80.26
2023-02-22T19:10:51.937Z,80.60
2023-02-22T19:13:58.239Z,80.97
2023-02-22T19:17:02.882Z,80.99
2023-02-22T19:20:07.563Z,79.72
2023-02-22T19:23:10.759Z,81.04
2023-02-22T19:26:24.282Z,80.49
2023-02-22T19:29:27.818Z,81.15
2023-02-22T19:32:33.929Z,80.94
2023-02-22T19:35:37.804Z,80.95
2023-02-22T19:38:41.790Z,81.07
2023-02-22T19:41:45.106Z,81.33
2023-02-22T19:44:48.644Z,81.44
2023-02-22T19:47:56.006Z,82.51
2023-02-22T19:51:09.538Z,82.12
2023-02-22T19:54:17.884Z,82.55
2023-02-22T19:57:23.795Z,83.61
2023-02-22T20:00:28.011Z,84.11
2023-02-22T20:03:35.242Z,84.28
2023-02-22T20:06:43.276Z,83.34
2023-02-22T20:09:46.296Z,83.67
2023-02-22T20:12:50.378Z,83.48
2023-02-22T20:15:54.689Z,83.08
2023-02-22T20:18:57.513Z,82.96
2023-02-22T20:22:00.750Z,83.26
2023-02-22T20:25:03.831Z,83.21
2023-02-22T20:28:07.800Z,83.07
2023-02-22T20:31:14.129Z,83.25
2023-02-22T20:34:17.520Z,82.95
2023-02-22T20:37:21.752Z,83.91
2023-02-22T20:40:24.789Z,84.42
2023-02-22T20:43:27.748Z,85.12
2023-02-22T20:46:31.996Z,83.73
2023-02-22T20:49:36.173Z,83.56
2023-02-22T20:52:39.317Z,83.49
2023-02-22T20:55:51.612Z,82.73
2023-02-22T20:58:57.100Z,83.33
2023-02-22T21:02:00.626Z,83.88
2023-02-22T21:05:03.611Z,85.05
2023-02-22T21:08:07.661Z,85.13
2023-02-22T21:11:15.210Z,85.09
2023-02-22T21:14:20.273Z,84.69
2023-02-22T21:17:28.976Z,84.94
2023-02-22T21:20:31.859Z,85.35
2023-02-22T21:23:34.620Z,85.41
2023-02-22T21:26:37.344Z,85.30
2023-02-22T21:29:40.126Z,84.84
2023-02-22T21:32:42.926Z,85.13
2023-02-22T21:35:49.608Z,84.84
2023-02-22T21:38:55.513Z,85.13
2023-02-22T21:42:00.542Z,85.40
2023-02-22T21:45:03.669Z,84.70
2023-02-22T21:48:06.569Z,84.24
2023-02-22T21:51:14.589Z,84.56
2023-02-22T21:54:17.276Z,84.54
2023-02-22T21:57:20.173Z,85.40
2023-02-22T22:00:29.421Z,86.24
2023-02-22T22:03:32.498Z,85.93
2023-02-22T22:06:36.144Z,85.54
2023-02-22T22:09:41.613Z,85.88
2023-02-22T22:12:47.325Z,86.65
2023-02-22T22:15:50.856Z,86.69
2023-02-22T22:18:53.868Z,87.13
2023-02-22T22:21:59.977Z,88.29
2023-02-22T22:25:03.838Z,88.30
2023-02-22T22:28:11.526Z,88.70
2023-02-22T22:31:15.897Z,87.50
2023-02-22T22:34:19.827Z,87.00
2023-02-22T22:37:22.876Z,87.20
2023-02-22T22:40:25.709Z,87.57
2023-02-22T22:43:29.543Z,87.22
2023-02-22T22:46:32.277Z,87.90
2023-02-22T22:49:40.561Z,87.34
2023-02-22T22:52:43.539Z,87.20
2023-02-22T22:55:46.468Z,86.83
2023-02-22T22:58:51.886Z,87.26
2023-02-22T23:01:56.800Z,87.22
2023-02-22T23:04:59.577Z,88.07
2023-02-22T23:08:05.016Z,87.53
2023-02-22T23:11:09.523Z,87.15
2023-02-22T23:14:21.609Z,88.67
2023-02-22T23:17:31.718Z,88.73
2023-02-22T23:20:39.145Z,88.93
2023-02-22T23:23:41.760Z,87.74
2023-02-22T23:26:50.631Z,87.80
2023-02-22T23:29:57.519Z,87.45
2023-02-22T23:33:03.133Z,87.71
2023-02-22T23:36:12.716Z,87.84
2023-02-22T23:39:20.827Z,87.34
2023-02-22T23:42:23.569Z,86.70
2023-02-22T23:45:27.859Z,85.98
2023-02-22T23:48:30.475Z,85.62
2023-02-22T23:51:39.581Z,85.82
2023-02-22T23:54:46.700Z,88.18
2023-02-22T23:57:49.269Z,87.32
